createdAt,value
2022-08-26T00:00:53.869Z,76.97
2022-08-26T00:06:32.806Z,77.88
2022-08-26T00:12:01.230Z,77.80
2022-08-26T00:17:36.292Z,77.37
2022-08-26T00:23:15.469Z,77.28
2022-08-26T00:26:06.274Z,77.58
2022-08-26T00:31:45.297Z,76.25
2022-08-26T00:34:35.250Z,76.62
2022-08-26T00:37:23.725Z,77.23
2022-08-26T00:43:07.006Z,78.30
2022-08-26T00:48:46.589Z,79.04
2022-08-26T00:54:30.942Z,78.80
2022-08-26T01:00:06.986Z,77.66
2022-08-26T01:02:56.628Z,77.46
2022-08-26T01:05:46.936Z,77.26
2022-08-26T01:11:21.463Z,77.71
2022-08-26T01:16:50.025Z,78.96
2022-08-26T01:22:32.596Z,79.70
2022-08-26T01:25:21.671Z,80.00
2022-08-26T01:28:16.242Z,79.88
2022-08-26T01:31:09.691Z,79.78
2022-08-26T01:36:58.614Z,80.09
2022-08-26T01:42:36.806Z,80.42
2022-08-26T01:48:16.987Z,80.66
2022-08-26T01:51:07.247Z,80.65
2022-08-26T01:56:45.803Z,80.08
2022-08-26T02:02:24.546Z,80.03
2022-08-26T02:07:58.223Z,80.71
2022-08-26T02:10:49.727Z,81.14
2022-08-26T02:16:32.689Z,80.43
2022-08-26T02:25:02.436Z,81.47
2022-08-26T02:27:51.807Z,81.64
2022-08-26T02:33:28.876Z,81.66
2022-08-26T02:39:06.155Z,81.58
2022-08-26T02:44:40.339Z,81.58
2022-08-26T02:47:28.907Z,81.75
2022-08-26T02:53:06.757Z,81.06
2022-08-26T02:55:56.157Z,81.45
2022-08-26T02:58:44.784Z,82.18
2022-08-26T03:04:19.651Z,82.96
2022-08-26T03:07:08.617Z,83.21
2022-08-26T03:09:57.869Z,82.70
2022-08-26T03:15:41.367Z,81.93
2022-08-26T03:21:19.602Z,81.08
2022-08-26T03:26:57.574Z,83.27
2022-08-26T03:32:28.624Z,84.04
2022-08-26T03:35:17.013Z,84.00
2022-08-26T03:38:08.060Z,83.79
2022-08-26T03:40:57.193Z,84.19
2022-08-26T03:46:26.757Z,83.85
2022-08-26T03:52:02.978Z,84.32
2022-08-26T03:57:41.673Z,84.98
2022-08-26T04:03:22.837Z,85.52
2022-08-26T04:06:13.795Z,85.94
2022-08-26T04:11:51.127Z,86.14
2022-08-26T04:17:17.527Z,86.13
2022-08-26T04:20:07.792Z,86.18
2022-08-26T04:22:58.346Z,85.92
2022-08-26T04:28:34.405Z,87.55
2022-08-26T04:34:10.940Z,87.12
2022-08-26T04:36:59.543Z,87.35
2022-08-26T04:42:36.624Z,87.57
2022-08-26T04:45:25.480Z,87.87
2022-08-26T04:51:01.973Z,88.02
2022-08-26T04:56:32.540Z,88.41
2022-08-26T04:59:21.956Z,88.36
2022-08-26T05:02:14.176Z,88.50
2022-08-26T05:07:48.626Z,87.91
2022-08-26T05:10:46.886Z,87.25
2022-08-26T05:16:17.571Z,86.95
2022-08-26T05:19:06.986Z,87.05
2022-08-26T05:24:48.827Z,86.83
2022-08-26T05:27:37.601Z,86.47
2022-08-26T05:30:27.569Z,85.17
2022-08-26T05:33:17.277Z,78.27
2022-08-26T05:36:10.398Z,74.29
2022-08-26T05:39:01.237Z,71.29
2022-08-26T05:44:53.695Z,66.38
2022-08-26T05:53:04.117Z,71.01
2022-08-26T05:58:43.805Z,73.62
2022-08-26T06:01:35.750Z,74.07
2022-08-26T06:06:55.390Z,75.46
2022-08-26T06:12:29.374Z,76.80
2022-08-26T06:18:00.177Z,77.18
2022-08-26T06:24:00.043Z,76.95
2022-08-26T06:26:51.531Z,75.87
2022-08-26T06:29:40.013Z,75.98
2022-08-26T06:32:29.066Z,76.82
2022-08-26T06:35:18.216Z,76.93
2022-08-26T06:40:54.844Z,76.29
2022-08-26T06:46:24.644Z,76.31
2022-08-26T06:52:00.775Z,75.91
2022-08-26T06:57:39.751Z,73.78
2022-08-26T07:00:31.309Z,73.70
2022-08-26T07:06:09.976Z,72.44
2022-08-26T07:09:04.960Z,72.75
2022-08-26T07:14:36.927Z,72.81
2022-08-26T07:17:25.328Z,72.19
2022-08-26T07:23:00.513Z,73.84
2022-08-26T07:28:34.364Z,69.39
2022-08-26T07:34:10.665Z,62.27
2022-08-26T07:39:48.333Z,61.21
2022-08-26T07:42:37.539Z,58.28
2022-08-26T07:48:13.636Z,57.05
2022-08-26T07:53:52.395Z,53.93
2022-08-26T07:59:24.248Z,53.61
2022-08-26T08:05:01.004Z,54.27
2022-08-26T08:07:49.460Z,53.34
2022-08-26T08:13:21.199Z,53.78
2022-08-26T08:18:59.237Z,53.29
2022-08-26T08:24:34.343Z,53.65
2022-08-26T08:27:36.885Z,53.21
2022-08-26T08:33:12.846Z,50.54
2022-08-26T08:41:49.817Z,52.27
2022-08-26T08:47:31.329Z,51.63
2022-08-26T08:53:16.451Z,50.26
2022-08-26T09:02:08.352Z,49.21
2022-08-26T09:08:08.357Z,50.19
2022-08-26T09:16:38.729Z,47.20
2022-08-26T09:22:13.188Z,46.97
2022-08-26T09:25:02.028Z,47.46
2022-08-26T09:30:41.032Z,45.93
2022-08-26T09:36:24.892Z,45.72
2022-08-26T09:42:22.943Z,45.07
2022-08-26T09:45:13.037Z,44.62
2022-08-26T09:50:53.209Z,45.01
2022-08-26T09:56:42.635Z,46.55
2022-08-26T10:02:27.566Z,44.39
2022-08-26T10:05:20.089Z,42.74
2022-08-26T10:11:05.255Z,42.97
2022-08-26T10:16:46.852Z,42.90
2022-08-26T10:22:28.604Z,43.22
2022-08-26T10:28:20.756Z,43.57
2022-08-26T10:31:14.776Z,42.63
2022-08-26T10:37:13.857Z,40.77
2022-08-26T10:39:57.264Z,42.22
2022-08-26T10:45:32.958Z,41.18
2022-08-26T10:51:11.349Z,40.67
2022-08-26T10:54:02.378Z,40.03
2022-08-26T10:59:44.261Z,39.68
2022-08-26T11:05:24.603Z,39.06
2022-08-26T11:11:38.264Z,39.51
2022-08-26T11:17:21.716Z,39.45
2022-08-26T11:23:10.277Z,38.88
2022-08-26T11:29:13.156Z,38.72
2022-08-26T11:34:59.148Z,38.21
2022-08-26T11:37:56.138Z,38.70
2022-08-26T11:43:34.385Z,39.60
2022-08-26T11:49:09.856Z,39.24
2022-08-26T11:55:05.180Z,38.26
2022-08-26T12:00:37.526Z,37.84
2022-08-26T12:09:30.647Z,37.67
2022-08-26T12:15:30.952Z,37.39
2022-08-26T12:21:14.094Z,38.02
2022-08-26T12:27:24.345Z,38.04
2022-08-26T12:30:19.317Z,37.39
2022-08-26T12:33:22.761Z,37.47
2022-08-26T12:36:02.172Z,37.73
2022-08-26T12:41:48.152Z,36.49
2022-08-26T12:47:39.022Z,37.13
2022-08-26T12:50:22.298Z,36.88
2022-08-26T12:56:03.447Z,36.79
2022-08-26T13:04:40.854Z,37.68
2022-08-26T13:10:34.906Z,38.22
2022-08-26T13:16:08.043Z,38.03
2022-08-26T13:21:47.700Z,37.89
2022-08-26T13:27:25.921Z,38.08
2022-08-26T13:33:02.157Z,38.37
2022-08-26T13:35:50.479Z,37.94
2022-08-26T13:44:02.705Z,36.00
2022-08-26T13:46:51.192Z,34.69
2022-08-26T13:52:30.081Z,35.52
2022-08-26T13:57:58.274Z,34.58
2022-08-26T14:00:47.139Z,34.79
2022-08-26T14:06:24.993Z,35.25
2022-08-26T14:12:03.227Z,36.18
2022-08-26T14:14:55.708Z,35.56
2022-08-26T14:17:44.429Z,35.70
2022-08-26T14:23:15.235Z,36.64
2022-08-26T14:31:29.196Z,35.26
2022-08-26T14:37:13.525Z,37.41
2022-08-26T14:40:00.729Z,38.08
2022-08-26T14:42:53.806Z,38.66
2022-08-26T14:45:45.434Z,37.60
2022-08-26T14:48:33.740Z,36.67
2022-08-26T14:54:12.457Z,35.98
2022-08-26T14:57:04.665Z,36.41
2022-08-26T15:02:37.172Z,39.27
2022-08-26T15:05:25.982Z,40.12
2022-08-26T15:08:15.823Z,41.44
2022-08-26T15:13:49.544Z,43.54
2022-08-26T15:19:25.173Z,45.57
2022-08-26T15:22:13.725Z,46.49
2022-08-26T15:25:01.960Z,47.51
2022-08-26T15:27:50.229Z,48.97
2022-08-26T15:30:39.419Z,49.51
2022-08-26T15:36:10.791Z,51.62
2022-08-26T15:41:49.616Z,49.66
2022-08-26T15:47:25.054Z,49.75
2022-08-26T15:53:07.525Z,52.11
2022-08-26T15:58:45.221Z,54.78
2022-08-26T16:01:34.173Z,56.30
2022-08-26T16:07:23.766Z,56.90
2022-08-26T16:13:01.275Z,57.17
2022-08-26T16:21:19.330Z,58.12
2022-08-26T16:24:08.921Z,58.47
2022-08-26T16:26:57.343Z,58.98
2022-08-26T16:29:45.710Z,58.98
2022-08-26T16:35:15.273Z,61.42
2022-08-26T16:40:54.196Z,60.92
2022-08-26T16:43:43.638Z,61.72
2022-08-26T16:49:17.521Z,62.37
2022-08-26T16:54:46.432Z,63.21
2022-08-26T16:57:38.203Z,62.97
2022-08-26T17:03:16.885Z,62.81
2022-08-26T17:08:55.285Z,63.25
2022-08-26T17:14:33.419Z,63.40
2022-08-26T17:20:14.287Z,62.55
2022-08-26T17:28:41.241Z,62.94
2022-08-26T17:31:35.825Z,63.37
2022-08-26T17:37:10.691Z,65.03
2022-08-26T17:39:59.311Z,66.82
2022-08-26T17:45:41.116Z,66.81
2022-08-26T17:48:29.792Z,67.34
2022-08-26T17:51:19.865Z,66.88
2022-08-26T17:56:49.444Z,67.69
2022-08-26T18:02:23.836Z,67.09
2022-08-26T18:05:13.380Z,67.01
2022-08-26T18:11:01.333Z,67.56
2022-08-26T18:13:49.830Z,67.60
2022-08-26T18:19:29.569Z,66.97
2022-08-26T18:25:07.454Z,66.45
2022-08-26T18:27:55.634Z,66.69
2022-08-26T18:33:31.511Z,67.56
2022-08-26T18:39:10.446Z,67.97
2022-08-26T18:44:47.620Z,69.46
2022-08-26T18:47:37.714Z,70.17
2022-08-26T18:53:14.715Z,70.57
2022-08-26T18:58:51.292Z,72.06
2022-08-26T19:04:37.228Z,71.68
2022-08-26T19:10:13.855Z,74.20
2022-08-26T19:13:06.734Z,76.46
2022-08-26T19:15:57.723Z,77.69
2022-08-26T19:21:38.054Z,85.04
2022-08-26T19:30:02.211Z,90.45
2022-08-26T19:32:51.172Z,91.26
2022-08-26T19:41:14.015Z,97.00
2022-08-26T19:44:02.769Z,97.05
2022-08-26T19:46:54.708Z,95.25
2022-08-26T19:52:32.473Z,98.56
2022-08-26T19:55:22.527Z,99.53
2022-08-26T20:01:10.076Z,100.00
2022-08-26T20:06:46.880Z,100.00
2022-08-26T20:12:23.128Z,100.00
2022-08-26T20:15:14.095Z,100.00
2022-08-26T20:21:03.474Z,100.00
2022-08-26T20:26:36.292Z,100.00
2022-08-26T20:32:36.318Z,100.00
2022-08-26T20:41:23.595Z,100.00
2022-08-26T20:44:24.311Z,100.00
2022-08-26T20:50:11.662Z,100.00
2022-08-26T20:53:00.935Z,100.00
2022-08-26T20:55:55.277Z,100.00
2022-08-26T20:58:49.624Z,100.00
2022-08-26T21:01:43.907Z,100.00
2022-08-26T21:10:22.738Z,100.00
2022-08-26T21:15:59.481Z,100.00
2022-08-26T21:24:23.723Z,100.00
2022-08-26T21:30:02.266Z,100.00
2022-08-26T21:38:29.149Z,100.00
2022-08-26T21:44:16.118Z,100.00
2022-08-26T21:47:09.696Z,100.00
2022-08-26T21:52:39.210Z,100.00
2022-08-26T22:00:54.621Z,98.73
2022-08-26T22:06:43.729Z,99.80
2022-08-26T22:12:23.613Z,100.00
2022-08-26T22:18:23.268Z,100.00
2022-08-26T22:21:16.819Z,99.67
2022-08-26T22:24:11.071Z,100.00
2022-08-26T22:29:47.854Z,99.71
2022-08-26T22:32:38.965Z,100.00
2022-08-26T22:41:09.767Z,100.00
2022-08-26T22:43:59.156Z,100.00
2022-08-26T22:46:48.305Z,100.00
2022-08-26T22:49:36.662Z,100.00
2022-08-26T22:52:26.287Z,100.00
2022-08-26T22:58:05.446Z,100.00
2022-08-26T23:03:41.230Z,100.00
2022-08-26T23:06:30.102Z,100.00
2022-08-26T23:09:19.398Z,100.00
2022-08-26T23:12:08.579Z,100.00
2022-08-26T23:17:42.496Z,100.00
2022-08-26T23:23:40.461Z,100.00
2022-08-26T23:26:29.011Z,100.00
2022-08-26T23:29:17.267Z,100.00
2022-08-26T23:34:58.597Z,100.00
2022-08-26T23:40:40.580Z,100.00
2022-08-26T23:43:29.339Z,100.00
2022-08-26T23:49:07.908Z,100.00
2022-08-26T23:54:45.175Z,100.00
